sensor_id;sensor_type;location;lat;lon;timestamp;P1;durP1;ratioP1;P2;durP2;ratioP2
71896;SDS011;59767;51.344;12.362;2023-02-22T00:02:40;14.52;;;6.50;;
71896;SDS011;59767;51.344;12.362;2023-02-22T00:05:47;13.88;;;6.72;;
71896;SDS011;59767;51.344;12.362;2023-02-22T00:08:56;16.17;;;6.75;;
71896;SDS011;59767;51.344;12.362;2023-02-22T00:12:01;14.30;;;6.68;;
71896;SDS011;59767;51.344;12.362;2023-02-22T00:15:05;14.50;;;6.57;;
71896;SDS011;59767;51.344;12.362;2023-02-22T00:18:11;16.33;;;8.20;;
71896;SDS011;59767;51.344;12.362;2023-02-22T00:21:16;11.80;;;6.20;;
71896;SDS011;59767;51.344;12.362;2023-02-22T00:24:22;15.10;;;6.88;;
71896;SDS011;59767;51.344;12.362;2023-02-22T00:27:26;16.73;;;7.20;;
71896;SDS011;59767;51.344;12.362;2023-02-22T00:30:31;15.80;;;7.72;;
71896;SDS011;59767;51.344;12.362;2023-02-22T00:33:37;15.07;;;7.78;;
71896;SDS011;59767;51.344;12.362;2023-02-22T00:36:46;16.48;;;8.07;;
71896;SDS011;59767;51.344;12.362;2023-02-22T00:39:50;14.80;;;7.82;;
71896;SDS011;59767;51.344;12.362;2023-02-22T00:42:59;18.15;;;8.65;;
71896;SDS011;59767;51.344;12.362;2023-02-22T00:46:04;17.02;;;8.07;;
71896;SDS011;59767;51.344;12.362;2023-02-22T00:49:08;15.68;;;8.48;;
71896;SDS011;59767;51.344;12.362;2023-02-22T00:52:12;16.38;;;8.27;;
71896;SDS011;59767;51.344;12.362;2023-02-22T00:55:18;18.55;;;8.95;;
71896;SDS011;59767;51.344;12.362;2023-02-22T00:58:27;16.52;;;8.98;;
71896;SDS011;59767;51.344;12.362;2023-02-22T01:01:31;15.95;;;8.57;;
71896;SDS011;59767;51.344;12.362;2023-02-22T01:04:35;18.98;;;7.68;;
71896;SDS011;59767;51.344;12.362;2023-02-22T01:07:39;14.30;;;6.68;;
71896;SDS011;59767;51.344;12.362;2023-02-22T01:10:43;18.75;;;8.60;;
71896;SDS011;59767;51.344;12.362;2023-02-22T01:13:48;16.63;;;8.88;;
71896;SDS011;59767;51.344;12.362;2023-02-22T01:16:53;20.42;;;9.90;;
71896;SDS011;59767;51.344;12.362;2023-02-22T01:19:57;13.82;;;5.90;;
71896;SDS011;59767;51.344;12.362;2023-02-22T01:23:02;16.30;;;5.60;;
71896;SDS011;59767;51.344;12.362;2023-02-22T01:26:10;17.58;;;6.35;;
71896;SDS011;59767;51.344;12.362;2023-02-22T01:29:14;16.40;;;6.68;;
71896;SDS011;59767;51.344;12.362;2023-02-22T01:32:19;13.95;;;7.18;;
71896;SDS011;59767;51.344;12.362;2023-02-22T01:35:25;15.75;;;7.93;;
71896;SDS011;59767;51.344;12.362;2023-02-22T01:38:31;14.55;;;7.43;;
71896;SDS011;59767;51.344;12.362;2023-02-22T01:41:36;14.18;;;6.85;;
71896;SDS011;59767;51.344;12.362;2023-02-22T01:44:41;15.27;;;7.55;;
71896;SDS011;59767;51.344;12.362;2023-02-22T01:47:45;15.18;;;7.57;;
71896;SDS011;59767;51.344;12.362;2023-02-22T01:50:55;14.15;;;7.18;;
71896;SDS011;59767;51.344;12.362;2023-02-22T01:54:14;16.35;;;7.30;;
71896;SDS011;59767;51.344;12.362;2023-02-22T01:57:24;15.35;;;7.50;;
71896;SDS011;59767;51.344;12.362;2023-02-22T02:00:34;15.10;;;7.78;;
71896;SDS011;59767;51.344;12.362;2023-02-22T02:03:39;17.08;;;8.05;;
71896;SDS011;59767;51.344;12.362;2023-02-22T02:06:44;16.23;;;7.55;;
71896;SDS011;59767;51.344;12.362;2023-02-22T02:09:58;14.57;;;7.55;;
71896;SDS011;59767;51.344;12.362;2023-02-22T02:13:04;15.77;;;7.57;;
71896;SDS011;59767;51.344;12.362;2023-02-22T02:16:08;14.65;;;7.57;;
71896;SDS011;59767;51.344;12.362;2023-02-22T02:26:07;21.42;;;9.55;;
71896;SDS011;59767;51.344;12.362;2023-02-22T02:33:34;15.88;;;8.05;;
71896;SDS011;59767;51.344;12.362;2023-02-22T02:46:35;17.85;;;8.57;;
71896;SDS011;59767;51.344;12.362;2023-02-22T02:49:50;21.50;;;9.75;;
71896;SDS011;59767;51.344;12.362;2023-02-22T02:53:00;21.38;;;9.98;;
71896;SDS011;59767;51.344;12.362;2023-02-22T02:56:07;22.83;;;10.40;;
71896;SDS011;59767;51.344;12.362;2023-02-22T03:13:07;22.15;;;10.70;;
71896;SDS011;59767;51.344;12.362;2023-02-22T03:19:51;21.75;;;10.15;;
71896;SDS011;59767;51.344;12.362;2023-02-22T03:26:10;24.08;;;11.00;;
71896;SDS011;59767;51.344;12.362;2023-02-22T03:29:27;21.88;;;10.55;;
71896;SDS011;59767;51.344;12.362;2023-02-22T03:32:39;21.88;;;9.73;;
71896;SDS011;59767;51.344;12.362;2023-02-22T03:35:54;21.35;;;10.48;;
71896;SDS011;59767;51.344;12.362;2023-02-22T03:39:00;19.13;;;9.30;;
71896;SDS011;59767;51.344;12.362;2023-02-22T03:42:08;22.40;;;10.50;;
71896;SDS011;59767;51.344;12.362;2023-02-22T03:45:17;21.85;;;9.77;;
71896;SDS011;59767;51.344;12.362;2023-02-22T03:48:47;22.67;;;10.73;;
71896;SDS011;59767;51.344;12.362;2023-02-22T03:52:00;23.30;;;10.52;;
71896;SDS011;59767;51.344;12.362;2023-02-22T03:55:05;18.33;;;9.20;;
71896;SDS011;59767;51.344;12.362;2023-02-22T03:58:13;22.48;;;9.75;;
71896;SDS011;59767;51.344;12.362;2023-02-22T04:01:18;21.52;;;10.05;;
71896;SDS011;59767;51.344;12.362;2023-02-22T04:04:23;18.80;;;9.50;;
71896;SDS011;59767;51.344;12.362;2023-02-22T04:07:27;18.98;;;9.68;;
71896;SDS011;59767;51.344;12.362;2023-02-22T04:10:31;19.48;;;9.35;;
71896;SDS011;59767;51.344;12.362;2023-02-22T04:13:36;22.35;;;9.68;;
71896;SDS011;59767;51.344;12.362;2023-02-22T04:16:40;20.17;;;9.50;;
71896;SDS011;59767;51.344;12.362;2023-02-22T04:19:44;20.73;;;10.10;;
71896;SDS011;59767;51.344;12.362;2023-02-22T04:22:48;20.23;;;9.60;;
71896;SDS011;59767;51.344;12.362;2023-02-22T04:25:52;21.25;;;9.52;;
71896;SDS011;59767;51.344;12.362;2023-02-22T04:28:56;19.90;;;9.05;;
71896;SDS011;59767;51.344;12.362;2023-02-22T04:32:00;19.33;;;9.25;;
71896;SDS011;59767;51.344;12.362;2023-02-22T04:35:05;20.02;;;9.80;;
71896;SDS011;59767;51.344;12.362;2023-02-22T04:38:09;18.27;;;9.63;;
71896;SDS011;59767;51.344;12.362;2023-02-22T04:41:15;21.55;;;10.18;;
71896;SDS011;59767;51.344;12.362;2023-02-22T04:44:20;20.13;;;9.82;;
71896;SDS011;59767;51.344;12.362;2023-02-22T04:47:24;18.52;;;9.45;;
71896;SDS011;59767;51.344;12.362;2023-02-22T04:50:29;21.20;;;9.45;;
71896;SDS011;59767;51.344;12.362;2023-02-22T04:53:33;22.67;;;10.30;;
71896;SDS011;59767;51.344;12.362;2023-02-22T04:56:38;22.27;;;9.27;;
71896;SDS011;59767;51.344;12.362;2023-02-22T04:59:42;20.45;;;9.43;;
71896;SDS011;59767;51.344;12.362;2023-02-22T05:02:47;18.67;;;9.25;;
71896;SDS011;59767;51.344;12.362;2023-02-22T05:05:51;21.05;;;9.15;;
71896;SDS011;59767;51.344;12.362;2023-02-22T05:08:56;19.15;;;9.00;;
71896;SDS011;59767;51.344;12.362;2023-02-22T05:12:00;21.70;;;9.55;;
71896;SDS011;59767;51.344;12.362;2023-02-22T05:15:04;21.63;;;9.88;;
71896;SDS011;59767;51.344;12.362;2023-02-22T05:18:10;23.45;;;10.98;;
71896;SDS011;59767;51.344;12.362;2023-02-22T05:21:14;21.50;;;10.23;;
71896;SDS011;59767;51.344;12.362;2023-02-22T05:24:18;19.38;;;10.00;;
71896;SDS011;59767;51.344;12.362;2023-02-22T05:27:22;24.30;;;10.48;;
71896;SDS011;59767;51.344;12.362;2023-02-22T05:30:28;23.20;;;10.07;;
71896;SDS011;59767;51.344;12.362;2023-02-22T05:33:34;23.13;;;11.02;;
71896;SDS011;59767;51.344;12.362;2023-02-22T05:36:38;23.15;;;11.13;;
71896;SDS011;59767;51.344;12.362;2023-02-22T05:39:42;23.77;;;10.05;;
71896;SDS011;59767;51.344;12.362;2023-02-22T05:42:49;22.42;;;11.23;;
71896;SDS011;59767;51.344;12.362;2023-02-22T05:45:53;25.60;;;11.57;;
71896;SDS011;59767;51.344;12.362;2023-02-22T05:48:58;28.65;;;11.90;;
71896;SDS011;59767;51.344;12.362;2023-02-22T05:52:01;25.98;;;11.70;;
71896;SDS011;59767;51.344;12.362;2023-02-22T05:55:06;23.20;;;11.02;;
71896;SDS011;59767;51.344;12.362;2023-02-22T05:58:12;23.65;;;11.55;;
71896;SDS011;59767;51.344;12.362;2023-02-22T06:01:16;29.27;;;12.27;;
71896;SDS011;59767;51.344;12.362;2023-02-22T06:04:21;25.70;;;12.40;;
71896;SDS011;59767;51.344;12.362;2023-02-22T06:07:25;28.27;;;12.80;;
71896;SDS011;59767;51.344;12.362;2023-02-22T06:10:30;26.60;;;13.23;;
71896;SDS011;59767;51.344;12.362;2023-02-22T06:13:35;28.38;;;13.38;;
71896;SDS011;59767;51.344;12.362;2023-02-22T06:16:39;29.02;;;13.02;;
71896;SDS011;59767;51.344;12.362;2023-02-22T06:19:43;26.90;;;13.27;;
71896;SDS011;59767;51.344;12.362;2023-02-22T06:22:48;29.38;;;12.80;;
71896;SDS011;59767;51.344;12.362;2023-02-22T06:25:55;25.85;;;12.25;;
71896;SDS011;59767;51.344;12.362;2023-02-22T06:28:59;32.72;;;13.02;;
71896;SDS011;59767;51.344;12.362;2023-02-22T06:32:03;29.33;;;11.70;;
71896;SDS011;59767;51.344;12.362;2023-02-22T06:35:08;29.92;;;12.48;;
71896;SDS011;59767;51.344;12.362;2023-02-22T06:38:19;27.35;;;12.68;;
71896;SDS011;59767;51.344;12.362;2023-02-22T06:41:25;27.52;;;11.90;;
71896;SDS011;59767;51.344;12.362;2023-02-22T06:44:29;29.10;;;12.45;;
71896;SDS011;59767;51.344;12.362;2023-02-22T06:47:36;26.58;;;12.23;;
71896;SDS011;59767;51.344;12.362;2023-02-22T06:50:41;29.58;;;11.77;;
71896;SDS011;59767;51.344;12.362;2023-02-22T06:53:46;31.92;;;13.10;;
71896;SDS011;59767;51.344;12.362;2023-02-22T06:56:50;28.95;;;12.63;;
71896;SDS011;59767;51.344;12.362;2023-02-22T06:59:54;26.70;;;12.75;;
71896;SDS011;59767;51.344;12.362;2023-02-22T07:02:59;30.75;;;12.25;;
71896;SDS011;59767;51.344;12.362;2023-02-22T07:06:03;31.20;;;13.77;;
71896;SDS011;59767;51.344;12.362;2023-02-22T07:09:09;27.15;;;13.30;;
71896;SDS011;59767;51.344;12.362;2023-02-22T07:12:13;35.05;;;14.00;;
71896;SDS011;59767;51.344;12.362;2023-02-22T07:15:18;32.97;;;13.07;;
71896;SDS011;59767;51.344;12.362;2023-02-22T07:18:24;45.47;;;12.60;;
71896;SDS011;59767;51.344;12.362;2023-02-22T07:21:28;31.95;;;13.15;;
71896;SDS011;59767;51.344;12.362;2023-02-22T07:24:33;26.30;;;12.27;;
71896;SDS011;59767;51.344;12.362;2023-02-22T07:27:38;25.88;;;11.98;;
71896;SDS011;59767;51.344;12.362;2023-02-22T07:30:44;27.10;;;11.80;;
71896;SDS011;59767;51.344;12.362;2023-02-22T07:33:49;24.45;;;11.35;;
71896;SDS011;59767;51.344;12.362;2023-02-22T07:36:54;25.95;;;11.75;;
71896;SDS011;59767;51.344;12.362;2023-02-22T07:39:58;28.65;;;12.52;;
71896;SDS011;59767;51.344;12.362;2023-02-22T07:46:18;23.50;;;11.80;;
71896;SDS011;59767;51.344;12.362;2023-02-22T07:49:22;24.33;;;11.20;;
71896;SDS011;59767;51.344;12.362;2023-02-22T07:52:26;28.52;;;11.98;;
71896;SDS011;59767;51.344;12.362;2023-02-22T07:55:30;25.95;;;11.60;;
71896;SDS011;59767;51.344;12.362;2023-02-22T07:58:35;25.70;;;10.60;;
71896;SDS011;59767;51.344;12.362;2023-02-22T08:01:40;24.48;;;11.18;;
71896;SDS011;59767;51.344;12.362;2023-02-22T08:04:44;24.75;;;12.18;;
71896;SDS011;59767;51.344;12.362;2023-02-22T08:07:48;25.45;;;11.80;;
71896;SDS011;59767;51.344;12.362;2023-02-22T08:10:53;24.88;;;12.32;;
71896;SDS011;59767;51.344;12.362;2023-02-22T08:13:57;23.25;;;10.98;;
71896;SDS011;59767;51.344;12.362;2023-02-22T08:17:01;22.35;;;11.05;;
71896;SDS011;59767;51.344;12.362;2023-02-22T08:20:05;24.85;;;11.88;;
71896;SDS011;59767;51.344;12.362;2023-02-22T08:23:10;22.45;;;11.77;;
71896;SDS011;59767;51.344;12.362;2023-02-22T08:26:17;25.70;;;12.07;;
71896;SDS011;59767;51.344;12.362;2023-02-22T08:29:23;24.35;;;11.63;;
71896;SDS011;59767;51.344;12.362;2023-02-22T08:32:30;25.48;;;11.98;;
71896;SDS011;59767;51.344;12.362;2023-02-22T08:35:34;24.80;;;12.05;;
71896;SDS011;59767;51.344;12.362;2023-02-22T08:38:38;21.48;;;11.70;;
71896;SDS011;59767;51.344;12.362;2023-02-22T08:41:42;24.95;;;12.52;;
71896;SDS011;59767;51.344;12.362;2023-02-22T08:44:46;24.48;;;12.70;;
71896;SDS011;59767;51.344;12.362;2023-02-22T08:47:50;25.60;;;12.25;;
71896;SDS011;59767;51.344;12.362;2023-02-22T08:50:54;29.48;;;13.30;;
71896;SDS011;59767;51.344;12.362;2023-02-22T08:53:59;26.30;;;13.25;;
71896;SDS011;59767;51.344;12.362;2023-02-22T08:57:03;28.33;;;14.02;;
71896;SDS011;59767;51.344;12.362;2023-02-22T09:00:07;25.25;;;13.18;;
71896;SDS011;59767;51.344;12.362;2023-02-22T09:03:13;27.38;;;13.18;;
71896;SDS011;59767;51.344;12.362;2023-02-22T09:06:18;28.27;;;13.95;;
71896;SDS011;59767;51.344;12.362;2023-02-22T09:09:22;26.60;;;13.20;;
71896;SDS011;59767;51.344;12.362;2023-02-22T09:12:26;24.95;;;12.85;;
71896;SDS011;59767;51.344;12.362;2023-02-22T09:15:31;25.98;;;13.32;;
71896;SDS011;59767;51.344;12.362;2023-02-22T09:18:38;26.83;;;13.60;;
71896;SDS011;59767;51.344;12.362;2023-02-22T09:21:53;28.90;;;12.57;;
71896;SDS011;59767;51.344;12.362;2023-02-22T09:24:58;26.60;;;13.90;;
71896;SDS011;59767;51.344;12.362;2023-02-22T09:28:19;23.95;;;13.35;;
71896;SDS011;59767;51.344;12.362;2023-02-22T09:31:23;27.88;;;14.25;;
71896;SDS011;59767;51.344;12.362;2023-02-22T09:34:27;25.95;;;13.00;;
71896;SDS011;59767;51.344;12.362;2023-02-22T09:37:37;27.10;;;12.73;;
71896;SDS011;59767;51.344;12.362;2023-02-22T09:40:44;30.55;;;13.82;;
71896;SDS011;59767;51.344;12.362;2023-02-22T09:44:00;25.00;;;12.80;;
71896;SDS011;59767;51.344;12.362;2023-02-22T09:47:19;25.58;;;13.00;;
71896;SDS011;59767;51.344;12.362;2023-02-22T09:50:36;28.13;;;13.00;;
71896;SDS011;59767;51.344;12.362;2023-02-22T09:53:45;21.75;;;12.27;;
71896;SDS011;59767;51.344;12.362;2023-02-22T09:56:54;21.65;;;11.88;;
71896;SDS011;59767;51.344;12.362;2023-02-22T10:00:03;27.15;;;12.52;;
71896;SDS011;59767;51.344;12.362;2023-02-22T10:06:37;30.05;;;12.75;;
71896;SDS011;59767;51.344;12.362;2023-02-22T10:09:45;25.67;;;12.00;;
71896;SDS011;59767;51.344;12.362;2023-02-22T10:16:35;25.23;;;11.80;;
71896;SDS011;59767;51.344;12.362;2023-02-22T10:26:34;24.13;;;11.43;;
71896;SDS011;59767;51.344;12.362;2023-02-22T10:29:45;22.38;;;11.93;;
71896;SDS011;59767;51.344;12.362;2023-02-22T10:33:09;25.58;;;11.80;;
71896;SDS011;59767;51.344;12.362;2023-02-22T10:36:19;22.85;;;11.13;;
71896;SDS011;59767;51.344;12.362;2023-02-22T10:42:38;23.95;;;11.45;;
71896;SDS011;59767;51.344;12.362;2023-02-22T10:45:43;22.08;;;11.73;;
71896;SDS011;59767;51.344;12.362;2023-02-22T10:48:49;21.77;;;10.80;;
71896;SDS011;59767;51.344;12.362;2023-02-22T10:52:01;19.15;;;10.43;;
71896;SDS011;59767;51.344;12.362;2023-02-22T10:55:11;26.58;;;11.75;;
71896;SDS011;59767;51.344;12.362;2023-02-22T10:58:18;21.98;;;10.82;;
71896;SDS011;59767;51.344;12.362;2023-02-22T11:04:44;24.85;;;11.75;;
71896;SDS011;59767;51.344;12.362;2023-02-22T11:11:47;22.00;;;11.73;;
71896;SDS011;59767;51.344;12.362;2023-02-22T11:14:52;21.85;;;10.95;;
71896;SDS011;59767;51.344;12.362;2023-02-22T11:17:56;20.80;;;11.55;;
71896;SDS011;59767;51.344;12.362;2023-02-22T11:21:05;22.10;;;11.13;;
71896;SDS011;59767;51.344;12.362;2023-02-22T11:24:13;21.45;;;10.88;;
71896;SDS011;59767;51.344;12.362;2023-02-22T11:27:52;21.40;;;10.75;;
71896;SDS011;59767;51.344;12.362;2023-02-22T11:30:49;24.05;;;11.23;;
71896;SDS011;59767;51.344;12.362;2023-02-22T11:33:55;22.20;;;11.38;;
71896;SDS011;59767;51.344;12.362;2023-02-22T11:40:21;20.58;;;11.45;;
71896;SDS011;59767;51.344;12.362;2023-02-22T11:43:25;23.45;;;11.82;;
71896;SDS011;59767;51.344;12.362;2023-02-22T11:46:30;26.65;;;11.82;;
71896;SDS011;59767;51.344;12.362;2023-02-22T11:49:39;23.60;;;11.63;;
71896;SDS011;59767;51.344;12.362;2023-02-22T11:52:46;23.00;;;10.52;;
71896;SDS011;59767;51.344;12.362;2023-02-22T11:56:02;19.02;;;10.77;;
71896;SDS011;59767;51.344;12.362;2023-02-22T12:06:15;21.88;;;10.07;;
71896;SDS011;59767;51.344;12.362;2023-02-22T12:22:58;18.48;;;9.45;;
71896;SDS011;59767;51.344;12.362;2023-02-22T12:29:42;18.70;;;9.50;;
71896;SDS011;59767;51.344;12.362;2023-02-22T12:33:17;16.73;;;9.10;;
71896;SDS011;59767;51.344;12.362;2023-02-22T12:40:05;16.73;;;8.95;;
71896;SDS011;59767;51.344;12.362;2023-02-22T12:46:32;23.83;;;9.88;;
71896;SDS011;59767;51.344;12.362;2023-02-22T12:53:24;17.42;;;8.88;;
71896;SDS011;59767;51.344;12.362;2023-02-22T12:59:53;16.35;;;8.30;;
71896;SDS011;59767;51.344;12.362;2023-02-22T13:20:25;16.55;;;8.73;;
71896;SDS011;59767;51.344;12.362;2023-02-22T13:23:44;16.40;;;8.00;;
71896;SDS011;59767;51.344;12.362;2023-02-22T13:27:00;16.77;;;8.68;;
71896;SDS011;59767;51.344;12.362;2023-02-22T13:30:13;18.65;;;9.35;;
71896;SDS011;59767;51.344;12.362;2023-02-22T13:36:59;18.08;;;9.30;;
71896;SDS011;59767;51.344;12.362;2023-02-22T13:44:03;15.57;;;8.65;;
71896;SDS011;59767;51.344;12.362;2023-02-22T13:54:06;17.00;;;8.60;;
71896;SDS011;59767;51.344;12.362;2023-02-22T13:57:19;16.10;;;8.55;;
71896;SDS011;59767;51.344;12.362;2023-02-22T14:03:49;15.20;;;7.93;;
71896;SDS011;59767;51.344;12.362;2023-02-22T14:06:54;17.45;;;7.85;;
71896;SDS011;59767;51.344;12.362;2023-02-22T14:10:03;15.18;;;7.85;;
71896;SDS011;59767;51.344;12.362;2023-02-22T14:13:07;16.55;;;8.52;;
71896;SDS011;59767;51.344;12.362;2023-02-22T14:16:16;19.77;;;8.45;;
71896;SDS011;59767;51.344;12.362;2023-02-22T14:19:22;14.75;;;7.50;;
71896;SDS011;59767;51.344;12.362;2023-02-22T14:22:27;14.00;;;7.75;;
71896;SDS011;59767;51.344;12.362;2023-02-22T14:32:03;20.33;;;8.40;;
71896;SDS011;59767;51.344;12.362;2023-02-22T14:35:12;16.48;;;7.90;;
71896;SDS011;59767;51.344;12.362;2023-02-22T14:38:32;16.33;;;7.30;;
71896;SDS011;59767;51.344;12.362;2023-02-22T14:41:37;17.27;;;7.47;;
71896;SDS011;59767;51.344;12.362;2023-02-22T14:51:28;15.57;;;7.43;;
71896;SDS011;59767;51.344;12.362;2023-02-22T14:54:43;13.45;;;6.63;;
71896;SDS011;59767;51.344;12.362;2023-02-22T15:01:28;13.02;;;6.63;;
71896;SDS011;59767;51.344;12.362;2023-02-22T15:04:52;13.48;;;6.97;;
71896;SDS011;59767;51.344;12.362;2023-02-22T15:07:59;14.95;;;6.82;;
71896;SDS011;59767;51.344;12.362;2023-02-22T15:11:10;13.55;;;6.40;;
71896;SDS011;59767;51.344;12.362;2023-02-22T15:14:23;14.57;;;6.60;;
71896;SDS011;59767;51.344;12.362;2023-02-22T15:17:29;14.02;;;6.82;;
71896;SDS011;59767;51.344;12.362;2023-02-22T15:20:34;14.70;;;6.40;;
71896;SDS011;59767;51.344;12.362;2023-02-22T15:23:45;13.60;;;5.10;;
71896;SDS011;59767;51.344;12.362;2023-02-22T15:26:52;11.15;;;5.20;;
71896;SDS011;59767;51.344;12.362;2023-02-22T15:30:07;14.80;;;6.07;;
71896;SDS011;59767;51.344;12.362;2023-02-22T15:33:32;13.13;;;5.90;;
71896;SDS011;59767;51.344;12.362;2023-02-22T15:36:41;9.35;;;4.97;;
71896;SDS011;59767;51.344;12.362;2023-02-22T15:39:46;11.20;;;5.22;;
71896;SDS011;59767;51.344;12.362;2023-02-22T15:42:50;11.02;;;4.80;;
71896;SDS011;59767;51.344;12.362;2023-02-22T15:45:57;11.32;;;4.88;;
71896;SDS011;59767;51.344;12.362;2023-02-22T15:49:24;9.55;;;4.53;;
71896;SDS011;59767;51.344;12.362;2023-02-22T15:52:27;9.85;;;4.80;;
71896;SDS011;59767;51.344;12.362;2023-02-22T15:55:35;7.90;;;4.10;;
71896;SDS011;59767;51.344;12.362;2023-02-22T15:58:45;8.90;;;4.40;;
71896;SDS011;59767;51.344;12.362;2023-02-22T16:01:50;10.35;;;4.68;;
71896;SDS011;59767;51.344;12.362;2023-02-22T16:04:57;9.20;;;4.80;;
71896;SDS011;59767;51.344;12.362;2023-02-22T16:08:11;11.95;;;4.50;;
71896;SDS011;59767;51.344;12.362;2023-02-22T16:11:20;9.55;;;4.43;;
71896;SDS011;59767;51.344;12.362;2023-02-22T16:17:40;9.45;;;4.75;;
71896;SDS011;59767;51.344;12.362;2023-02-22T16:21:04;10.57;;;4.70;;
71896;SDS011;59767;51.344;12.362;2023-02-22T16:24:29;10.27;;;4.78;;
71896;SDS011;59767;51.344;12.362;2023-02-22T16:27:39;10.77;;;4.47;;
71896;SDS011;59767;51.344;12.362;2023-02-22T16:30:55;9.40;;;4.85;;
71896;SDS011;59767;51.344;12.362;2023-02-22T16:34:01;9.65;;;4.57;;
71896;SDS011;59767;51.344;12.362;2023-02-22T16:37:16;13.45;;;5.45;;
71896;SDS011;59767;51.344;12.362;2023-02-22T16:40:26;11.05;;;5.05;;
71896;SDS011;59767;51.344;12.362;2023-02-22T16:43:35;12.00;;;5.20;;
71896;SDS011;59767;51.344;12.362;2023-02-22T16:46:39;12.98;;;5.15;;
71896;SDS011;59767;51.344;12.362;2023-02-22T16:49:47;11.80;;;5.10;;
71896;SDS011;59767;51.344;12.362;2023-02-22T16:52:55;12.55;;;5.07;;
71896;SDS011;59767;51.344;12.362;2023-02-22T16:56:02;10.55;;;5.57;;
71896;SDS011;59767;51.344;12.362;2023-02-22T16:59:09;15.23;;;6.15;;
71896;SDS011;59767;51.344;12.362;2023-02-22T17:02:17;11.70;;;5.47;;
71896;SDS011;59767;51.344;12.362;2023-02-22T17:05:22;14.63;;;6.25;;
71896;SDS011;59767;51.344;12.362;2023-02-22T17:08:27;17.25;;;7.82;;
71896;SDS011;59767;51.344;12.362;2023-02-22T17:11:31;16.27;;;7.47;;
71896;SDS011;59767;51.344;12.362;2023-02-22T17:14:36;17.50;;;7.88;;
71896;SDS011;59767;51.344;12.362;2023-02-22T17:17:40;14.30;;;7.10;;
71896;SDS011;59767;51.344;12.362;2023-02-22T17:20:44;17.90;;;8.30;;
71896;SDS011;59767;51.344;12.362;2023-02-22T17:23:49;23.38;;;9.10;;
71896;SDS011;59767;51.344;12.362;2023-02-22T17:26:53;16.90;;;8.18;;
71896;SDS011;59767;51.344;12.362;2023-02-22T17:29:58;16.13;;;8.95;;
71896;SDS011;59767;51.344;12.362;2023-02-22T17:33:03;19.63;;;9.32;;
71896;SDS011;59767;51.344;12.362;2023-02-22T17:36:09;18.08;;;8.93;;
71896;SDS011;59767;51.344;12.362;2023-02-22T17:39:14;25.45;;;9.77;;
71896;SDS011;59767;51.344;12.362;2023-02-22T17:42:18;15.82;;;9.05;;
71896;SDS011;59767;51.344;12.362;2023-02-22T17:45:22;22.98;;;11.00;;
71896;SDS011;59767;51.344;12.362;2023-02-22T17:48:27;21.63;;;9.65;;
71896;SDS011;59767;51.344;12.362;2023-02-22T17:51:31;22.83;;;10.10;;
71896;SDS011;59767;51.344;12.362;2023-02-22T17:54:35;22.77;;;10.50;;
71896;SDS011;59767;51.344;12.362;2023-02-22T17:57:40;20.45;;;10.70;;
71896;SDS011;59767;51.344;12.362;2023-02-22T18:00:47;20.95;;;10.10;;
71896;SDS011;59767;51.344;12.362;2023-02-22T18:03:53;20.45;;;10.48;;
71896;SDS011;59767;51.344;12.362;2023-02-22T18:06:59;22.50;;;10.95;;
71896;SDS011;59767;51.344;12.362;2023-02-22T18:10:03;24.70;;;11.13;;
71896;SDS011;59767;51.344;12.362;2023-02-22T18:13:08;23.95;;;12.20;;
71896;SDS011;59767;51.344;12.362;2023-02-22T18:16:15;25.85;;;12.00;;
71896;SDS011;59767;51.344;12.362;2023-02-22T18:19:20;21.83;;;11.13;;
71896;SDS011;59767;51.344;12.362;2023-02-22T18:22:26;24.55;;;12.65;;
71896;SDS011;59767;51.344;12.362;2023-02-22T18:25:30;24.55;;;12.55;;
71896;SDS011;59767;51.344;12.362;2023-02-22T18:28:35;23.67;;;12.70;;
71896;SDS011;59767;51.344;12.362;2023-02-22T18:31:39;25.27;;;12.43;;
71896;SDS011;59767;51.344;12.362;2023-02-22T18:34:45;23.45;;;12.10;;
71896;SDS011;59767;51.344;12.362;2023-02-22T18:37:50;26.23;;;12.77;;
71896;SDS011;59767;51.344;12.362;2023-02-22T18:41:01;27.33;;;12.95;;
71896;SDS011;59767;51.344;12.362;2023-02-22T18:44:07;24.27;;;12.32;;
71896;SDS011;59767;51.344;12.362;2023-02-22T18:47:13;26.38;;;13.98;;
71896;SDS011;59767;51.344;12.362;2023-02-22T18:50:17;26.98;;;13.50;;
71896;SDS011;59767;51.344;12.362;2023-02-22T18:53:22;26.45;;;13.82;;
71896;SDS011;59767;51.344;12.362;2023-02-22T18:56:27;27.35;;;14.43;;
71896;SDS011;59767;51.344;12.362;2023-02-22T18:59:42;28.30;;;14.50;;
71896;SDS011;59767;51.344;12.362;2023-02-22T19:02:47;29.10;;;14.52;;
71896;SDS011;59767;51.344;12.362;2023-02-22T19:05:51;25.23;;;13.40;;
71896;SDS011;59767;51.344;12.362;2023-02-22T19:08:56;27.17;;;14.30;;
71896;SDS011;59767;51.344;12.362;2023-02-22T19:12:04;30.42;;;14.38;;
71896;SDS011;59767;51.344;12.362;2023-02-22T19:15:08;24.25;;;14.13;;
71896;SDS011;59767;51.344;12.362;2023-02-22T19:18:14;27.48;;;14.88;;
71896;SDS011;59767;51.344;12.362;2023-02-22T19:21:19;26.58;;;14.18;;
71896;SDS011;59767;51.344;12.362;2023-02-22T19:24:24;29.58;;;14.68;;
71896;SDS011;59767;51.344;12.362;2023-02-22T19:27:28;27.73;;;14.23;;
71896;SDS011;59767;51.344;12.362;2023-02-22T19:30:33;28.77;;;14.15;;
71896;SDS011;59767;51.344;12.362;2023-02-22T19:33:37;26.70;;;14.57;;
71896;SDS011;59767;51.344;12.362;2023-02-22T19:36:42;28.48;;;14.77;;
71896;SDS011;59767;51.344;12.362;2023-02-22T19:39:50;30.98;;;15.25;;
71896;SDS011;59767;51.344;12.362;2023-02-22T19:42:55;27.20;;;14.93;;
71896;SDS011;59767;51.344;12.362;2023-02-22T19:46:09;34.13;;;15.07;;
71896;SDS011;59767;51.344;12.362;2023-02-22T19:49:14;28.77;;;14.48;;
71896;SDS011;59767;51.344;12.362;2023-02-22T19:52:18;29.10;;;14.82;;
71896;SDS011;59767;51.344;12.362;2023-02-22T19:55:22;29.27;;;15.02;;
71896;SDS011;59767;51.344;12.362;2023-02-22T19:58:26;26.98;;;15.00;;
71896;SDS011;59767;51.344;12.362;2023-02-22T20:01:31;25.52;;;14.57;;
71896;SDS011;59767;51.344;12.362;2023-02-22T20:04:36;27.05;;;15.20;;
71896;SDS011;59767;51.344;12.362;2023-02-22T20:07:40;29.58;;;14.77;;
71896;SDS011;59767;51.344;12.362;2023-02-22T20:10:45;33.40;;;15.40;;
71896;SDS011;59767;51.344;12.362;2023-02-22T20:13:49;33.40;;;15.02;;
71896;SDS011;59767;51.344;12.362;2023-02-22T20:16:53;27.00;;;14.63;;
71896;SDS011;59767;51.344;12.362;2023-02-22T20:19:58;26.10;;;14.82;;
71896;SDS011;59767;51.344;12.362;2023-02-22T20:23:03;30.55;;;15.57;;
71896;SDS011;59767;51.344;12.362;2023-02-22T20:26:09;27.55;;;15.15;;
71896;SDS011;59767;51.344;12.362;2023-02-22T20:29:17;29.20;;;15.48;;
71896;SDS011;59767;51.344;12.362;2023-02-22T20:32:22;30.75;;;15.75;;
71896;SDS011;59767;51.344;12.362;2023-02-22T20:35:27;27.17;;;15.18;;
71896;SDS011;59767;51.344;12.362;2023-02-22T20:38:31;26.60;;;15.23;;
71896;SDS011;59767;51.344;12.362;2023-02-22T20:41:35;29.08;;;15.15;;
71896;SDS011;59767;51.344;12.362;2023-02-22T20:44:39;27.52;;;14.80;;
71896;SDS011;59767;51.344;12.362;2023-02-22T20:47:44;29.38;;;15.48;;
71896;SDS011;59767;51.344;12.362;2023-02-22T20:50:48;29.33;;;14.85;;
71896;SDS011;59767;51.344;12.362;2023-02-22T20:53:52;30.15;;;15.35;;